sensor_id;sensor_type;location;lat;lon;timestamp;temperature;humidity
15121;DHT22;7661;48.904;9.414;2024-03-02T00:01:31;6.20;99.90
15121;DHT22;7661;48.904;9.414;2024-03-02T00:03:58;6.20;99.90
15121;DHT22;7661;48.904;9.414;2024-03-02T00:06:25;6.20;99.90
15121;DHT22;7661;48.904;9.414;2024-03-02T00:08:53;6.20;99.90
15121;DHT22;7661;48.904;9.414;2024-03-02T00:11:23;6.20;99.90
15121;DHT22;7661;48.904;9.414;2024-03-02T00:13:51;6.20;99.90
15121;DHT22;7661;48.904;9.414;2024-03-02T00:16:18;6.20;99.90
15121;DHT22;7661;48.904;9.414;2024-03-02T00:18:45;6.20;99.90
15121;DHT22;7661;48.904;9.414;2024-03-02T00:21:12;6.30;99.90
15121;DHT22;7661;48.904;9.414;2024-03-02T00:23:40;6.30;99.90
15121;DHT22;7661;48.904;9.414;2024-03-02T00:26:08;6.20;99.90
15121;DHT22;7661;48.904;9.414;2024-03-02T00:28:37;6.20;99.90
15121;DHT22;7661;48.904;9.414;2024-03-02T00:31:09;6.20;99.90
15121;DHT22;7661;48.904;9.414;2024-03-02T00:33:37;6.10;99.90
15121;DHT22;7661;48.904;9.414;2024-03-02T00:36:05;6.10;99.90
15121;DHT22;7661;48.904;9.414;2024-03-02T00:38:33;6.00;99.90
15121;DHT22;7661;48.904;9.414;2024-03-02T00:41:03;6.00;99.90
15121;DHT22;7661;48.904;9.414;2024-03-02T00:43:41;5.90;99.90
15121;DHT22;7661;48.904;9.414;2024-03-02T00:46:07;5.90;99.90
15121;DHT22;7661;48.904;9.414;2024-03-02T00:48:33;5.90;99.90
15121;DHT22;7661;48.904;9.414;2024-03-02T00:51:01;5.80;99.90
15121;DHT22;7661;48.904;9.414;2024-03-02T00:53:28;5.80;99.90
15121;DHT22;7661;48.904;9.414;2024-03-02T00:55:55;5.80;99.90
15121;DHT22;7661;48.904;9.414;2024-03-02T00:58:22;5.80;99.90
15121;DHT22;7661;48.904;9.414;2024-03-02T01:00:51;5.80;99.90
15121;DHT22;7661;48.904;9.414;2024-03-02T01:03:18;5.80;99.90
15121;DHT22;7661;48.904;9.414;2024-03-02T01:05:45;5.70;99.90
15121;DHT22;7661;48.904;9.414;2024-03-02T01:08:11;5.70;99.90
15121;DHT22;7661;48.904;9.414;2024-03-02T01:10:38;5.60;99.90
15121;DHT22;7661;48.904;9.414;2024-03-02T01:13:05;5.60;99.90
15121;DHT22;7661;48.904;9.414;2024-03-02T01:15:32;5.60;99.90
15121;DHT22;7661;48.904;9.414;2024-03-02T01:18:01;5.50;99.90
15121;DHT22;7661;48.904;9.414;2024-03-02T01:20:27;5.50;99.90
15121;DHT22;7661;48.904;9.414;2024-03-02T01:22:54;5.50;99.90
15121;DHT22;7661;48.904;9.414;2024-03-02T01:25:21;5.50;99.90
15121;DHT22;7661;48.904;9.414;2024-03-02T01:27:48;5.50;99.90
15121;DHT22;7661;48.904;9.414;2024-03-02T01:30:14;5.40;99.90
15121;DHT22;7661;48.904;9.414;2024-03-02T01:32:41;5.40;99.90
15121;DHT22;7661;48.904;9.414;2024-03-02T01:35:09;5.40;99.90
15121;DHT22;7661;48.904;9.414;2024-03-02T01:37:36;5.40;99.90
15121;DHT22;7661;48.904;9.414;2024-03-02T01:40:03;5.40;99.90
15121;DHT22;7661;48.904;9.414;2024-03-02T01:42:34;5.40;99.90
15121;DHT22;7661;48.904;9.414;2024-03-02T01:45:01;5.40;99.90
15121;DHT22;7661;48.904;9.414;2024-03-02T01:47:29;5.30;99.90
15121;DHT22;7661;48.904;9.414;2024-03-02T01:49:55;5.30;99.90
15121;DHT22;7661;48.904;9.414;2024-03-02T01:52:23;5.30;99.90
15121;DHT22;7661;48.904;9.414;2024-03-02T01:54:50;5.20;99.90
15121;DHT22;7661;48.904;9.414;2024-03-02T01:57:17;5.20;99.90
15121;DHT22;7661;48.904;9.414;2024-03-02T01:59:44;5.20;99.90
15121;DHT22;7661;48.904;9.414;2024-03-02T02:02:12;5.20;99.90
15121;DHT22;7661;48.904;9.414;2024-03-02T02:04:39;5.10;99.90
15121;DHT22;7661;48.904;9.414;2024-03-02T02:07:06;5.10;99.90
15121;DHT22;7661;48.904;9.414;2024-03-02T02:09:34;5.10;99.90
15121;DHT22;7661;48.904;9.414;2024-03-02T02:12:01;5.00;99.90
15121;DHT22;7661;48.904;9.414;2024-03-02T02:14:28;5.00;99.90
15121;DHT22;7661;48.904;9.414;2024-03-02T02:16:55;5.00;99.90
15121;DHT22;7661;48.904;9.414;2024-03-02T02:19:22;5.00;99.90
15121;DHT22;7661;48.904;9.414;2024-03-02T02:21:50;4.90;99.90
15121;DHT22;7661;48.904;9.414;2024-03-02T02:24:17;4.90;99.90
15121;DHT22;7661;48.904;9.414;2024-03-02T02:26:44;4.90;99.90
15121;DHT22;7661;48.904;9.414;2024-03-02T02:29:10;4.90;99.90
15121;DHT22;7661;48.904;9.414;2024-03-02T02:31:37;4.90;99.90
15121;DHT22;7661;48.904;9.414;2024-03-02T02:34:04;4.80;99.90
15121;DHT22;7661;48.904;9.414;2024-03-02T02:36:31;4.80;99.90
15121;DHT22;7661;48.904;9.414;2024-03-02T02:39:01;4.80;99.90
15121;DHT22;7661;48.904;9.414;2024-03-02T02:41:28;4.80;99.90
15121;DHT22;7661;48.904;9.414;2024-03-02T02:43:55;4.70;99.90
15121;DHT22;7661;48.904;9.414;2024-03-02T02:46:22;4.70;99.90
15121;DHT22;7661;48.904;9.414;2024-03-02T02:48:49;4.70;99.90
15121;DHT22;7661;48.904;9.414;2024-03-02T02:51:16;4.70;99.90
15121;DHT22;7661;48.904;9.414;2024-03-02T02:53:43;4.60;99.90
15121;DHT22;7661;48.904;9.414;2024-03-02T02:56:11;4.60;99.90
15121;DHT22;7661;48.904;9.414;2024-03-02T02:58:37;4.60;99.90
15121;DHT22;7661;48.904;9.414;2024-03-02T03:01:04;4.60;99.90
15121;DHT22;7661;48.904;9.414;2024-03-02T03:03:31;4.60;99.90
15121;DHT22;7661;48.904;9.414;2024-03-02T03:05:57;4.50;99.90
15121;DHT22;7661;48.904;9.414;2024-03-02T03:08:24;4.50;99.90
15121;DHT22;7661;48.904;9.414;2024-03-02T03:10:51;4.50;99.90
15121;DHT22;7661;48.904;9.414;2024-03-02T03:13:19;4.50;99.90
15121;DHT22;7661;48.904;9.414;2024-03-02T03:15:46;4.40;99.90
15121;DHT22;7661;48.904;9.414;2024-03-02T03:18:12;4.40;99.90
15121;DHT22;7661;48.904;9.414;2024-03-02T03:20:39;4.40;99.90
15121;DHT22;7661;48.904;9.414;2024-03-02T03:23:06;4.40;99.90
15121;DHT22;7661;48.904;9.414;2024-03-02T03:25:34;4.30;99.90
15121;DHT22;7661;48.904;9.414;2024-03-02T03:28:00;4.30;99.90
15121;DHT22;7661;48.904;9.414;2024-03-02T03:30:30;4.30;99.90
15121;DHT22;7661;48.904;9.414;2024-03-02T03:32:56;4.20;99.90
15121;DHT22;7661;48.904;9.414;2024-03-02T03:35:23;4.20;99.90
15121;DHT22;7661;48.904;9.414;2024-03-02T03:37:50;4.20;99.90
15121;DHT22;7661;48.904;9.414;2024-03-02T03:40:17;4.20;99.90
15121;DHT22;7661;48.904;9.414;2024-03-02T03:42:44;4.10;99.90
15121;DHT22;7661;48.904;9.414;2024-03-02T03:45:11;4.10;99.90
15121;DHT22;7661;48.904;9.414;2024-03-02T03:47:39;4.10;99.90
15121;DHT22;7661;48.904;9.414;2024-03-02T03:50:06;4.10;99.90
15121;DHT22;7661;48.904;9.414;2024-03-02T03:52:33;4.10;99.90
15121;DHT22;7661;48.904;9.414;2024-03-02T03:55:00;4.00;99.90
15121;DHT22;7661;48.904;9.414;2024-03-02T03:57:26;4.00;99.90
15121;DHT22;7661;48.904;9.414;2024-03-02T03:59:53;4.00;99.90
15121;DHT22;7661;48.904;9.414;2024-03-02T04:02:20;3.90;99.90
15121;DHT22;7661;48.904;9.414;2024-03-02T04:04:48;3.90;99.90
15121;DHT22;7661;48.904;9.414;2024-03-02T04:07:15;3.90;99.90
15121;DHT22;7661;48.904;9.414;2024-03-02T04:09:41;3.90;99.90
15121;DHT22;7661;48.904;9.414;2024-03-02T04:12:08;3.80;99.90
15121;DHT22;7661;48.904;9.414;2024-03-02T04:14:35;3.90;99.90
15121;DHT22;7661;48.904;9.414;2024-03-02T04:17:03;3.90;99.90
15121;DHT22;7661;48.904;9.414;2024-03-02T04:19:29;3.80;99.90
15121;DHT22;7661;48.904;9.414;2024-03-02T04:21:57;3.80;99.90
15121;DHT22;7661;48.904;9.414;2024-03-02T04:24:24;3.80;99.90
15121;DHT22;7661;48.904;9.414;2024-03-02T04:26:51;3.80;99.90
15121;DHT22;7661;48.904;9.414;2024-03-02T04:29:17;3.80;99.90
15121;DHT22;7661;48.904;9.414;2024-03-02T04:31:44;3.80;99.90
15121;DHT22;7661;48.904;9.414;2024-03-02T04:34:11;3.70;99.90
15121;DHT22;7661;48.904;9.414;2024-03-02T04:36:37;3.70;99.90
15121;DHT22;7661;48.904;9.414;2024-03-02T04:39:05;3.70;99.90
15121;DHT22;7661;48.904;9.414;2024-03-02T04:41:35;3.70;99.90
15121;DHT22;7661;48.904;9.414;2024-03-02T04:44:01;3.70;99.90
15121;DHT22;7661;48.904;9.414;2024-03-02T04:46:28;3.70;99.90
15121;DHT22;7661;48.904;9.414;2024-03-02T04:48:55;3.70;99.90
15121;DHT22;7661;48.904;9.414;2024-03-02T04:51:22;3.60;99.90
15121;DHT22;7661;48.904;9.414;2024-03-02T04:53:49;3.60;99.90
15121;DHT22;7661;48.904;9.414;2024-03-02T04:56:17;3.60;99.90
15121;DHT22;7661;48.904;9.414;2024-03-02T04:59:05;3.60;99.90
15121;DHT22;7661;48.904;9.414;2024-03-02T05:01:32;3.60;99.90
15121;DHT22;7661;48.904;9.414;2024-03-02T05:03:59;3.60;99.90
15121;DHT22;7661;48.904;9.414;2024-03-02T05:06:25;3.60;99.90
15121;DHT22;7661;48.904;9.414;2024-03-02T05:08:52;3.50;99.90
15121;DHT22;7661;48.904;9.414;2024-03-02T05:11:20;3.50;99.90
15121;DHT22;7661;48.904;9.414;2024-03-02T05:14:14;3.50;99.90
15121;DHT22;7661;48.904;9.414;2024-03-02T05:16:39;3.50;99.90
15121;DHT22;7661;48.904;9.414;2024-03-02T05:19:07;3.60;99.90
15121;DHT22;7661;48.904;9.414;2024-03-02T05:21:33;3.80;99.90
15121;DHT22;7661;48.904;9.414;2024-03-02T05:24:00;3.80;99.90
15121;DHT22;7661;48.904;9.414;2024-03-02T05:26:29;3.80;99.90
15121;DHT22;7661;48.904;9.414;2024-03-02T05:28:55;3.80;99.90
15121;DHT22;7661;48.904;9.414;2024-03-02T05:31:22;3.80;99.90
15121;DHT22;7661;48.904;9.414;2024-03-02T05:33:49;3.80;99.90
15121;DHT22;7661;48.904;9.414;2024-03-02T05:36:15;3.80;99.90
15121;DHT22;7661;48.904;9.414;2024-03-02T05:38:42;3.90;99.90
15121;DHT22;7661;48.904;9.414;2024-03-02T05:41:09;4.00;99.90
15121;DHT22;7661;48.904;9.414;2024-03-02T05:43:38;4.10;99.90
15121;DHT22;7661;48.904;9.414;2024-03-02T05:46:05;4.10;99.90
15121;DHT22;7661;48.904;9.414;2024-03-02T05:48:31;4.00;99.90
15121;DHT22;7661;48.904;9.414;2024-03-02T05:50:58;4.00;99.90
15121;DHT22;7661;48.904;9.414;2024-03-02T05:53:25;3.90;99.90
15121;DHT22;7661;48.904;9.414;2024-03-02T05:55:51;3.80;99.90
15121;DHT22;7661;48.904;9.414;2024-03-02T05:58:21;3.70;99.90
15121;DHT22;7661;48.904;9.414;2024-03-02T06:00:59;3.70;99.90
15121;DHT22;7661;48.904;9.414;2024-03-02T06:03:26;3.70;99.90
15121;DHT22;7661;48.904;9.414;2024-03-02T06:05:54;3.60;99.90
15121;DHT22;7661;48.904;9.414;2024-03-02T06:08:20;3.60;99.90
15121;DHT22;7661;48.904;9.414;2024-03-02T06:10:47;3.60;99.90
15121;DHT22;7661;48.904;9.414;2024-03-02T06:13:14;3.50;99.90
15121;DHT22;7661;48.904;9.414;2024-03-02T06:15:40;3.50;99.90
15121;DHT22;7661;48.904;9.414;2024-03-02T06:18:09;3.50;99.90
15121;DHT22;7661;48.904;9.414;2024-03-02T06:20:36;3.50;99.90
15121;DHT22;7661;48.904;9.414;2024-03-02T06:23:03;3.50;99.90
15121;DHT22;7661;48.904;9.414;2024-03-02T06:25:29;3.50;99.90
15121;DHT22;7661;48.904;9.414;2024-03-02T06:27:56;3.50;99.90
15121;DHT22;7661;48.904;9.414;2024-03-02T06:30:23;3.50;99.90
15121;DHT22;7661;48.904;9.414;2024-03-02T06:32:50;3.50;99.90
15121;DHT22;7661;48.904;9.414;2024-03-02T06:35:18;3.50;99.90
15121;DHT22;7661;48.904;9.414;2024-03-02T06:37:45;3.50;99.90
15121;DHT22;7661;48.904;9.414;2024-03-02T06:40:11;3.50;99.90
15121;DHT22;7661;48.904;9.414;2024-03-02T06:42:38;3.60;99.90
15121;DHT22;7661;48.904;9.414;2024-03-02T06:45:05;3.60;99.90
15121;DHT22;7661;48.904;9.414;2024-03-02T06:47:32;3.60;99.90
15121;DHT22;7661;48.904;9.414;2024-03-02T06:49:59;3.70;99.90
15121;DHT22;7661;48.904;9.414;2024-03-02T06:52:27;3.70;99.90
15121;DHT22;7661;48.904;9.414;2024-03-02T06:54:53;3.70;99.90
15121;DHT22;7661;48.904;9.414;2024-03-02T06:57:20;3.70;99.90
15121;DHT22;7661;48.904;9.414;2024-03-02T06:59:46;3.70;99.90
15121;DHT22;7661;48.904;9.414;2024-03-02T07:02:14;3.80;99.90
15121;DHT22;7661;48.904;9.414;2024-03-02T07:04:40;3.90;99.90
15121;DHT22;7661;48.904;9.414;2024-03-02T07:07:07;3.90;99.90
15121;DHT22;7661;48.904;9.414;2024-03-02T07:09:35;4.00;99.90
15121;DHT22;7661;48.904;9.414;2024-03-02T07:12:02;4.00;99.90
15121;DHT22;7661;48.904;9.414;2024-03-02T07:14:29;4.10;99.90
15121;DHT22;7661;48.904;9.414;2024-03-02T07:17:09;4.20;99.90
15121;DHT22;7661;48.904;9.414;2024-03-02T07:19:37;4.30;99.90
15121;DHT22;7661;48.904;9.414;2024-03-02T07:22:05;4.40;99.90
15121;DHT22;7661;48.904;9.414;2024-03-02T07:24:32;4.40;99.90
15121;DHT22;7661;48.904;9.414;2024-03-02T07:27:00;4.50;99.90
15121;DHT22;7661;48.904;9.414;2024-03-02T07:29:27;4.70;99.90
15121;DHT22;7661;48.904;9.414;2024-03-02T07:31:54;4.90;99.90
15121;DHT22;7661;48.904;9.414;2024-03-02T07:34:21;5.10;99.90
15121;DHT22;7661;48.904;9.414;2024-03-02T07:36:47;5.30;99.90
15121;DHT22;7661;48.904;9.414;2024-03-02T07:39:14;5.50;99.90
15121;DHT22;7661;48.904;9.414;2024-03-02T07:41:41;5.80;99.90
15121;DHT22;7661;48.904;9.414;2024-03-02T07:44:10;6.10;99.90
15121;DHT22;7661;48.904;9.414;2024-03-02T07:46:39;6.60;99.90
15121;DHT22;7661;48.904;9.414;2024-03-02T07:49:06;6.90;99.90
15121;DHT22;7661;48.904;9.414;2024-03-02T07:51:33;7.20;99.90
15121;DHT22;7661;48.904;9.414;2024-03-02T07:54:00;7.50;99.90
15121;DHT22;7661;48.904;9.414;2024-03-02T07:56:26;7.80;99.90
15121;DHT22;7661;48.904;9.414;2024-03-02T07:58:53;8.10;99.90
15121;DHT22;7661;48.904;9.414;2024-03-02T08:01:24;8.30;99.90
15121;DHT22;7661;48.904;9.414;2024-03-02T08:03:50;8.60;99.90
15121;DHT22;7661;48.904;9.414;2024-03-02T08:06:18;8.90;99.90
15121;DHT22;7661;48.904;9.414;2024-03-02T08:08:46;9.10;99.90
15121;DHT22;7661;48.904;9.414;2024-03-02T08:11:13;9.30;99.90
15121;DHT22;7661;48.904;9.414;2024-03-02T08:13:40;9.30;99.90
15121;DHT22;7661;48.904;9.414;2024-03-02T08:16:06;9.10;99.90
15121;DHT22;7661;48.904;9.414;2024-03-02T08:18:36;9.00;99.90
15121;DHT22;7661;48.904;9.414;2024-03-02T08:21:03;9.00;99.90
15121;DHT22;7661;48.904;9.414;2024-03-02T08:23:29;9.00;99.90
15121;DHT22;7661;48.904;9.414;2024-03-02T08:25:57;9.10;99.90
15121;DHT22;7661;48.904;9.414;2024-03-02T08:28:24;9.10;99.90
15121;DHT22;7661;48.904;9.414;2024-03-02T08:30:50;9.10;99.90
15121;DHT22;7661;48.904;9.414;2024-03-02T08:33:17;9.00;99.90
15121;DHT22;7661;48.904;9.414;2024-03-02T08:35:45;9.00;99.90
15121;DHT22;7661;48.904;9.414;2024-03-02T08:38:12;9.00;99.90
15121;DHT22;7661;48.904;9.414;2024-03-02T08:40:39;9.00;99.90
15121;DHT22;7661;48.904;9.414;2024-03-02T08:43:06;9.00;99.90
15121;DHT22;7661;48.904;9.414;2024-03-02T08:45:33;9.00;99.90
15121;DHT22;7661;48.904;9.414;2024-03-02T08:48:01;9.00;99.90
15121;DHT22;7661;48.904;9.414;2024-03-02T08:50:27;9.00;99.90
15121;DHT22;7661;48.904;9.414;2024-03-02T08:52:56;9.10;99.90
15121;DHT22;7661;48.904;9.414;2024-03-02T08:55:22;9.10;99.90
15121;DHT22;7661;48.904;9.414;2024-03-02T08:57:49;9.10;99.90
15121;DHT22;7661;48.904;9.414;2024-03-02T09:00:16;9.10;99.90
15121;DHT22;7661;48.904;9.414;2024-03-02T09:02:44;9.00;99.90
15121;DHT22;7661;48.904;9.414;2024-03-02T09:05:11;9.00;99.90
15121;DHT22;7661;48.904;9.414;2024-03-02T09:07:37;9.00;99.90
15121;DHT22;7661;48.904;9.414;2024-03-02T09:10:06;9.20;99.90
15121;DHT22;7661;48.904;9.414;2024-03-02T09:12:34;9.40;99.90
15121;DHT22;7661;48.904;9.414;2024-03-02T09:15:01;9.90;99.90
15121;DHT22;7661;48.904;9.414;2024-03-02T09:17:28;10.30;99.90
15121;DHT22;7661;48.904;9.414;2024-03-02T09:19:55;10.50;99.90
15121;DHT22;7661;48.904;9.414;2024-03-02T09:22:22;10.70;99.90
15121;DHT22;7661;48.904;9.414;2024-03-02T09:24:49;11.00;99.90
15121;DHT22;7661;48.904;9.414;2024-03-02T09:27:17;11.60;99.90
15121;DHT22;7661;48.904;9.414;2024-03-02T09:29:44;12.10;99.90
15121;DHT22;7661;48.904;9.414;2024-03-02T09:32:12;12.50;99.90
15121;DHT22;7661;48.904;9.414;2024-03-02T09:34:39;12.90;99.90
15121;DHT22;7661;48.904;9.414;2024-03-02T09:37:05;13.30;99.90
15121;DHT22;7661;48.904;9.414;2024-03-02T09:39:33;13.60;99.90
15121;DHT22;7661;48.904;9.414;2024-03-02T09:42:00;13.80;99.90
15121;DHT22;7661;48.904;9.414;2024-03-02T09:44:28;14.00;99.90
15121;DHT22;7661;48.904;9.414;2024-03-02T09:46:54;14.00;99.90
15121;DHT22;7661;48.904;9.414;2024-03-02T09:49:21;14.40;99.90
15121;DHT22;7661;48.904;9.414;2024-03-02T09:51:48;14.80;99.90
15121;DHT22;7661;48.904;9.414;2024-03-02T09:54:15;15.00;99.90
15121;DHT22;7661;48.904;9.414;2024-03-02T09:56:42;15.10;99.90
15121;DHT22;7661;48.904;9.414;2024-03-02T09:59:08;15.40;99.90
15121;DHT22;7661;48.904;9.414;2024-03-02T10:01:36;15.50;99.90
15121;DHT22;7661;48.904;9.414;2024-03-02T10:04:03;15.90;99.90
15121;DHT22;7661;48.904;9.414;2024-03-02T10:06:31;15.90;99.90
15121;DHT22;7661;48.904;9.414;2024-03-02T10:08:58;16.10;99.90
15121;DHT22;7661;48.904;9.414;2024-03-02T10:11:25;16.30;99.90
15121;DHT22;7661;48.904;9.414;2024-03-02T10:13:57;16.60;99.90
15121;DHT22;7661;48.904;9.414;2024-03-02T10:16:30;16.80;99.90
15121;DHT22;7661;48.904;9.414;2024-03-02T10:18:58;17.00;99.90
15121;DHT22;7661;48.904;9.414;2024-03-02T10:21:28;17.30;99.90
15121;DHT22;7661;48.904;9.414;2024-03-02T10:23:54;17.50;99.90
15121;DHT22;7661;48.904;9.414;2024-03-02T10:26:32;17.70;99.90
15121;DHT22;7661;48.904;9.414;2024-03-02T10:28:59;17.80;99.90
15121;DHT22;7661;48.904;9.414;2024-03-02T10:31:27;17.80;99.90
15121;DHT22;7661;48.904;9.414;2024-03-02T10:33:54;17.70;99.90
15121;DHT22;7661;48.904;9.414;2024-03-02T10:36:22;17.80;99.90
15121;DHT22;7661;48.904;9.414;2024-03-02T10:38:51;18.00;99.90
15121;DHT22;7661;48.904;9.414;2024-03-02T10:41:20;18.60;99.90
15121;DHT22;7661;48.904;9.414;2024-03-02T10:43:50;18.90;99.30
15121;DHT22;7661;48.904;9.414;2024-03-02T10:46:17;19.10;99.10
15121;DHT22;7661;48.904;9.414;2024-03-02T10:48:46;19.50;99.00
15121;DHT22;7661;48.904;9.414;2024-03-02T10:51:13;19.90;97.70
15121;DHT22;7661;48.904;9.414;2024-03-02T10:53:41;20.10;96.50
15121;DHT22;7661;48.904;9.414;2024-03-02T10:56:08;20.20;94.30
15121;DHT22;7661;48.904;9.414;2024-03-02T10:58:35;20.10;94.00
15121;DHT22;7661;48.904;9.414;2024-03-02T11:01:03;20.50;94.50
15121;DHT22;7661;48.904;9.414;2024-03-02T11:03:30;20.90;93.10
15121;DHT22;7661;48.904;9.414;2024-03-02T11:06:00;21.00;91.60
15121;DHT22;7661;48.904;9.414;2024-03-02T11:08:27;21.00;91.10
15121;DHT22;7661;48.904;9.414;2024-03-02T11:10:57;20.90;91.80
15121;DHT22;7661;48.904;9.414;2024-03-02T11:13:24;21.20;90.80
15121;DHT22;7661;48.904;9.414;2024-03-02T11:15:55;20.90;90.40
15121;DHT22;7661;48.904;9.414;2024-03-02T11:18:25;21.00;90.30
15121;DHT22;7661;48.904;9.414;2024-03-02T11:20:52;21.20;91.00
15121;DHT22;7661;48.904;9.414;2024-03-02T11:23:20;21.60;89.30
15121;DHT22;7661;48.904;9.414;2024-03-02T11:28:54;22.10;87.40
15121;DHT22;7661;48.904;9.414;2024-03-02T11:31:21;22.60;87.50
15121;DHT22;7661;48.904;9.414;2024-03-02T11:33:48;22.90;84.40
15121;DHT22;7661;48.904;9.414;2024-03-02T11:36:14;23.00;83.00
15121;DHT22;7661;48.904;9.414;2024-03-02T11:38:43;22.90;82.50
15121;DHT22;7661;48.904;9.414;2024-03-02T11:41:10;22.90;80.40
15121;DHT22;7661;48.904;9.414;2024-03-02T11:43:37;23.30;81.70
15121;DHT22;7661;48.904;9.414;2024-03-02T11:46:06;23.50;79.30
15121;DHT22;7661;48.904;9.414;2024-03-02T11:48:34;23.60;76.00
15121;DHT22;7661;48.904;9.414;2024-03-02T11:51:02;23.30;74.10
15121;DHT22;7661;48.904;9.414;2024-03-02T11:53:28;23.10;75.60
15121;DHT22;7661;48.904;9.414;2024-03-02T11:55:57;23.30;76.00
15121;DHT22;7661;48.904;9.414;2024-03-02T11:58:24;23.70;77.50
15121;DHT22;7661;48.904;9.414;2024-03-02T12:00:52;24.10;73.30
15121;DHT22;7661;48.904;9.414;2024-03-02T12:03:20;23.90;72.30
15121;DHT22;7661;48.904;9.414;2024-03-02T12:05:48;23.70;71.70
15121;DHT22;7661;48.904;9.414;2024-03-02T12:08:15;23.80;71.70
15121;DHT22;7661;48.904;9.414;2024-03-02T12:10:42;24.00;70.70
15121;DHT22;7661;48.904;9.414;2024-03-02T12:13:09;24.40;72.00
15121;DHT22;7661;48.904;9.414;2024-03-02T12:15:37;24.60;70.00
15121;DHT22;7661;48.904;9.414;2024-03-02T12:18:04;25.10;67.60
15121;DHT22;7661;48.904;9.414;2024-03-02T12:20:33;25.00;66.20
15121;DHT22;7661;48.904;9.414;2024-03-02T12:23:00;24.50;65.80
15121;DHT22;7661;48.904;9.414;2024-03-02T12:25:27;24.20;67.20
15121;DHT22;7661;48.904;9.414;2024-03-02T12:27:55;24.40;67.00
15121;DHT22;7661;48.904;9.414;2024-03-02T12:30:22;24.20;65.60
15121;DHT22;7661;48.904;9.414;2024-03-02T12:32:49;23.60;65.60
15121;DHT22;7661;48.904;9.414;2024-03-02T12:35:17;23.20;69.00
15121;DHT22;7661;48.904;9.414;2024-03-02T12:37:46;23.40;66.80
15121;DHT22;7661;48.904;9.414;2024-03-02T12:40:13;23.10;65.80
15121;DHT22;7661;48.904;9.414;2024-03-02T12:42:40;23.30;69.00
15121;DHT22;7661;48.904;9.414;2024-03-02T12:45:08;23.70;67.00
15121;DHT22;7661;48.904;9.414;2024-03-02T12:47:34;23.70;66.00
15121;DHT22;7661;48.904;9.414;2024-03-02T12:50:01;23.80;65.60
15121;DHT22;7661;48.904;9.414;2024-03-02T12:52:28;24.10;64.60
15121;DHT22;7661;48.904;9.414;2024-03-02T12:54:57;23.80;64.70
15121;DHT22;7661;48.904;9.414;2024-03-02T12:57:27;24.00;65.50
15121;DHT22;7661;48.904;9.414;2024-03-02T12:59:57;24.10;64.30
15121;DHT22;7661;48.904;9.414;2024-03-02T13:02:26;24.20;64.60
15121;DHT22;7661;48.904;9.414;2024-03-02T13:04:53;24.50;63.10
15121;DHT22;7661;48.904;9.414;2024-03-02T13:07:20;24.40;61.70
15121;DHT22;7661;48.904;9.414;2024-03-02T13:09:48;24.50;63.10
15121;DHT22;7661;48.904;9.414;2024-03-02T13:12:16;24.50;60.80
15121;DHT22;7661;48.904;9.414;2024-03-02T13:14:43;24.50;59.10
15121;DHT22;7661;48.904;9.414;2024-03-02T13:17:09;24.80;59.20
15121;DHT22;7661;48.904;9.414;2024-03-02T13:19:36;25.00;57.90
15121;DHT22;7661;48.904;9.414;2024-03-02T13:22:03;24.90;56.80
15121;DHT22;7661;48.904;9.414;2024-03-02T13:24:31;24.90;56.60
15121;DHT22;7661;48.904;9.414;2024-03-02T13:26:58;24.80;55.90
15121;DHT22;7661;48.904;9.414;2024-03-02T13:29:26;24.90;57.00
15121;DHT22;7661;48.904;9.414;2024-03-02T13:31:53;25.00;54.30
15121;DHT22;7661;48.904;9.414;2024-03-02T13:34:20;25.20;54.70
15121;DHT22;7661;48.904;9.414;2024-03-02T13:36:47;25.10;53.80
15121;DHT22;7661;48.904;9.414;2024-03-02T13:39:13;25.20;54.70
15121;DHT22;7661;48.904;9.414;2024-03-02T13:41:40;25.70;54.00
15121;DHT22;7661;48.904;9.414;2024-03-02T13:44:07;26.00;52.90
15121;DHT22;7661;48.904;9.414;2024-03-02T13:46:35;25.80;51.80
15121;DHT22;7661;48.904;9.414;2024-03-02T13:49:02;25.90;52.20
15121;DHT22;7661;48.904;9.414;2024-03-02T13:51:29;26.10;52.00
15121;DHT22;7661;48.904;9.414;2024-03-02T13:53:57;26.50;50.70
15121;DHT22;7661;48.904;9.414;2024-03-02T13:56:24;26.90;50.70
15121;DHT22;7661;48.904;9.414;2024-03-02T13:58:50;27.40;49.00
15121;DHT22;7661;48.904;9.414;2024-03-02T14:01:17;27.50;49.10
15121;DHT22;7661;48.904;9.414;2024-03-02T14:03:45;28.00;50.80
15121;DHT22;7661;48.904;9.414;2024-03-02T14:06:12;28.70;49.20
15121;DHT22;7661;48.904;9.414;2024-03-02T14:08:39;28.80;47.10
15121;DHT22;7661;48.904;9.414;2024-03-02T14:11:06;29.00;47.40
15121;DHT22;7661;48.904;9.414;2024-03-02T14:13:32;29.40;45.60
15121;DHT22;7661;48.904;9.414;2024-03-02T14:15:59;28.90;45.80
15121;DHT22;7661;48.904;9.414;2024-03-02T14:18:26;28.80;45.90
15121;DHT22;7661;48.904;9.414;2024-03-02T14:20:54;29.30;46.20
15121;DHT22;7661;48.904;9.414;2024-03-02T14:23:22;29.10;44.60
15121;DHT22;7661;48.904;9.414;2024-03-02T14:25:48;28.80;43.80
15121;DHT22;7661;48.904;9.414;2024-03-02T14:28:15;28.90;43.80
15121;DHT22;7661;48.904;9.414;2024-03-02T14:30:43;29.10;43.10
15121;DHT22;7661;48.904;9.414;2024-03-02T14:33:10;28.90;43.40
15121;DHT22;7661;48.904;9.414;2024-03-02T14:35:37;29.20;42.60
15121;DHT22;7661;48.904;9.414;2024-03-02T14:38:05;29.20;42.30
15121;DHT22;7661;48.904;9.414;2024-03-02T14:40:32;29.20;41.50
15121;DHT22;7661;48.904;9.414;2024-03-02T14:42:59;28.80;42.20
15121;DHT22;7661;48.904;9.414;2024-03-02T14:45:25;28.80;43.00
15121;DHT22;7661;48.904;9.414;2024-03-02T14:47:52;29.30;42.20
15121;DHT22;7661;48.904;9.414;2024-03-02T14:50:19;28.60;42.30
15121;DHT22;7661;48.904;9.414;2024-03-02T14:52:45;28.10;43.20
15121;DHT22;7661;48.904;9.414;2024-03-02T14:55:14;27.60;43.10
15121;DHT22;7661;48.904;9.414;2024-03-02T14:57:40;27.10;42.50
15121;DHT22;7661;48.904;9.414;2024-03-02T15:00:07;26.90;44.40
15121;DHT22;7661;48.904;9.414;2024-03-02T15:02:36;26.70;45.50
15121;DHT22;7661;48.904;9.414;2024-03-02T15:05:03;27.00;44.80
15121;DHT22;7661;48.904;9.414;2024-03-02T15:07:31;26.80;43.90
15121;DHT22;7661;48.904;9.414;2024-03-02T15:09:57;26.80;44.60
15121;DHT22;7661;48.904;9.414;2024-03-02T15:12:26;27.20;42.50
15121;DHT22;7661;48.904;9.414;2024-03-02T15:14:52;27.00;42.60
15121;DHT22;7661;48.904;9.414;2024-03-02T15:17:19;26.90;41.00
15121;DHT22;7661;48.904;9.414;2024-03-02T15:19:46;26.50;40.10
15121;DHT22;7661;48.904;9.414;2024-03-02T15:22:13;26.30;40.60
15121;DHT22;7661;48.904;9.414;2024-03-02T15:24:39;26.40;41.60
15121;DHT22;7661;48.904;9.414;2024-03-02T15:27:06;26.80;41.10
15121;DHT22;7661;48.904;9.414;2024-03-02T15:29:35;27.10;41.40
15121;DHT22;7661;48.904;9.414;2024-03-02T15:32:02;27.00;40.90
15121;DHT22;7661;48.904;9.414;2024-03-02T15:34:31;26.30;42.30
15121;DHT22;7661;48.904;9.414;2024-03-02T15:36:58;25.60;44.20
15121;DHT22;7661;48.904;9.414;2024-03-02T15:39:24;24.90;45.90
15121;DHT22;7661;48.904;9.414;2024-03-02T15:41:51;24.20;47.20
15121;DHT22;7661;48.904;9.414;2024-03-02T15:44:18;23.20;49.00
15121;DHT22;7661;48.904;9.414;2024-03-02T15:46:46;22.20;50.70
15121;DHT22;7661;48.904;9.414;2024-03-02T15:49:13;21.50;52.40
15121;DHT22;7661;48.904;9.414;2024-03-02T15:51:40;20.80;54.20
15121;DHT22;7661;48.904;9.414;2024-03-02T15:54:09;20.10;56.60
15121;DHT22;7661;48.904;9.414;2024-03-02T15:56:36;19.40;58.50
15121;DHT22;7661;48.904;9.414;2024-03-02T15:59:02;19.00;60.10